Time;durP1;ratioP1;P1;durP2;ratioP2;P2;SDS_P1;SDS_P2;PMS_P1;PMS_P2;Temp;Humidity;BMP_temperature;BMP_pressure;BME280_temperature;BME280_humidity;BME280_pressure;Samples;Min_cycle;Max_cycle;Signal;HPM_P1;HPM_P2
2022/12/16 00:01:07;;;;;;;21.37;12.70;;;;;;;-143.84;86.42;44192.31;5111675;28;20445;-70
2022/12/16 00:03:36;;;;;;;16.03;12.33;;;;;;;-143.84;86.97;44154.22;5111657;28;20435;-69
2022/12/16 00:06:03;;;;;;;17.17;12.70;;;;;;;-143.84;87.35;44125.69;5111666;28;20534;-70
2022/12/16 00:08:33;;;;;;;18.17;14.10;;;;;;;-143.84;87.93;44074.28;5111664;28;20457;-70
2022/12/16 00:11:01;;;;;;;17.00;12.90;;;;;;;-143.84;87.78;43931.50;5111422;28;20439;-70
2022/12/16 00:13:30;;;;;;;20.90;13.30;;;;;;;-143.84;88.39;43939.13;5111658;28;20476;-70
2022/12/16 00:15:58;;;;;;;14.23;11.03;;;;;;;-143.84;88.11;43918.19;5111505;28;20933;-70
2022/12/16 00:18:25;;;;;;;18.37;12.10;;;;;;;-143.84;88.45;43941.03;5111564;28;20444;-69
2022/12/16 00:20:54;;;;;;;21.40;12.33;;;;;;;-143.84;88.31;43910.56;5111359;28;20449;-70
2022/12/16 00:23:22;;;;;;;13.57;11.27;;;;;;;-143.84;88.00;43935.31;5111629;28;20510;-69
2022/12/16 00:25:49;;;;;;;18.53;11.73;;;;;;;-143.84;87.45;43935.31;5111044;28;20554;-70
2022/12/16 00:28:21;;;;;;;14.10;11.50;;;;;;;-143.84;87.66;43963.88;5111705;28;20492;-70
2022/12/16 00:30:49;;;;;;;13.50;11.37;;;;;;;-143.84;87.29;43982.91;5111518;28;20439;-70
2022/12/16 00:33:16;;;;;;;14.03;11.30;;;;;;;-143.84;87.73;43956.25;5111331;28;20433;-69
2022/12/16 00:35:44;;;;;;;17.53;12.73;;;;;;;-143.84;88.08;43942.94;5111157;28;20494;-70
2022/12/16 00:38:12;;;;;;;14.93;11.33;;;;;;;-143.84;87.22;43982.91;5110675;28;20437;-70
2022/12/16 00:40:39;;;;;;;17.03;12.67;;;;;;;-143.84;87.81;44043.81;5111166;28;20466;-70
2022/12/16 00:43:06;;;;;;;22.43;13.63;;;;;;;-143.84;87.19;44022.88;5110277;28;20431;-70
2022/12/16 00:45:34;;;;;;;19.93;15.30;;;;;;;-143.84;88.43;43929.59;5111098;28;20485;-70
2022/12/16 00:48:01;;;;;;;19.33;14.97;;;;;;;-143.84;88.57;43929.59;5110693;28;20523;-70
2022/12/16 00:50:28;;;;;;;17.17;13.83;;;;;;;-143.84;88.39;43933.41;5110951;28;20453;-70
2022/12/16 00:52:56;;;;;;;18.90;15.63;;;;;;;-143.84;88.81;43889.63;5110762;28;20449;-70
2022/12/16 00:55:24;;;;;;;22.13;14.47;;;;;;;-143.84;88.34;43918.19;5110795;28;20825;-70
2022/12/16 00:57:51;;;;;;;22.80;15.23;;;;;;;-143.84;88.84;43916.28;5110498;28;20979;-69
2022/12/16 01:00:19;;;;;;;21.10;15.47;;;;;;;-143.84;88.90;43902.97;5110474;28;20499;-69
2022/12/16 01:02:48;;;;;;;20.43;16.37;;;;;;;-143.84;88.70;43880.13;5110648;28;20970;-70
2022/12/16 01:05:19;;;;;;;27.63;16.40;;;;;;;-143.84;89.87;43885.81;5110505;28;20480;-69
2022/12/16 01:07:46;;;;;;;20.80;16.40;;;;;;;-143.84;89.59;43910.56;5110432;28;20451;-70
2022/12/16 01:10:14;;;;;;;26.93;16.40;;;;;;;-143.84;89.92;43889.63;5110383;28;20907;-69
2022/12/16 01:12:42;;;;;;;24.63;17.90;;;;;;;-143.84;90.49;43895.34;5110214;28;21005;-70
2022/12/16 01:15:11;;;;;;;25.40;19.00;;;;;;;-143.84;91.04;43927.69;5110312;28;20493;-70
2022/12/16 01:17:39;;;;;;;25.27;17.63;;;;;;;-143.84;91.06;43904.84;5110381;28;20448;-70
2022/12/16 01:20:07;;;;;;;21.67;16.60;;;;;;;-143.84;91.46;43935.31;5110554;28;20513;-70
2022/12/16 01:22:35;;;;;;;23.00;17.07;;;;;;;-143.84;91.69;43942.94;5106763;28;20447;-69
2022/12/16 01:25:02;;;;;;;23.60;16.37;;;;;;;-143.84;92.32;43975.28;5109959;28;20538;-70
2022/12/16 01:27:30;;;;;;;23.73;17.37;;;;;;;-143.84;92.97;43944.84;5110215;28;20437;-69
2022/12/16 01:29:59;;;;;;;23.90;18.07;;;;;;;-143.84;93.30;43977.19;5109979;28;20483;-69
2022/12/16 01:32:26;;;;;;;22.60;16.70;;;;;;;-143.84;93.25;43994.31;5110142;28;20453;-69
2022/12/16 01:34:54;;;;;;;27.47;18.60;;;;;;;-143.84;93.46;43973.38;5110231;28;20514;-70
2022/12/16 01:37:22;;;;;;;25.10;16.87;;;;;;;-143.84;93.82;43994.31;5110161;28;20461;-69
2022/12/16 01:39:50;;;;;;;29.87;16.60;;;;;;;-143.84;93.84;44007.66;5109857;28;20442;-69
2022/12/16 01:42:19;;;;;;;19.97;14.63;;;;;;;-143.84;94.08;44011.47;5109962;28;20442;-69
2022/12/16 01:44:48;;;;;;;23.40;16.67;;;;;;;-143.84;94.48;44028.59;5109493;28;20555;-70
2022/12/16 01:47:20;;;;;;;17.30;13.10;;;;;;;-143.84;94.65;44040.00;5109608;28;20451;-69
2022/12/16 01:49:53;;;;;;;19.03;14.63;;;;;;;-143.84;94.74;44053.34;5109617;28;20460;-69
2022/12/16 01:52:25;;;;;;;16.37;14.63;;;;;;;-143.84;95.25;44047.63;5109471;28;20468;-69
2022/12/16 01:54:57;;;;;;;18.17;13.10;;;;;;;-143.84;95.56;44072.38;5108772;28;20442;-69
2022/12/16 01:57:30;;;;;;;19.60;14.37;;;;;;;-143.84;95.71;44091.41;5108804;28;20898;-70
2022/12/16 01:59:58;;;;;;;20.97;14.07;;;;;;;-143.84;96.10;44093.31;5109346;28;20452;-69
2022/12/16 02:02:27;;;;;;;16.30;13.67;;;;;;;-143.84;96.55;44095.22;5109683;28;20484;-69
2022/12/16 02:07:39;;;;;;;16.30;13.00;;;;;;;-143.84;96.53;44104.72;5109562;28;20438;-69
2022/12/16 02:10:10;;;;;;;15.13;13.53;;;;;;;-143.84;96.78;44112.34;5109696;28;20437;-69
2022/12/16 02:12:45;;;;;;;15.40;13.43;;;;;;;-143.84;96.69;44118.06;5109020;28;20470;-70
2022/12/16 02:15:25;;;;;;;24.00;14.90;;;;;;;-143.84;96.66;44106.63;5109569;28;20434;-70
2022/12/16 02:18:05;;;;;;;19.57;15.23;;;;;;;-143.84;96.46;44104.72;5109354;28;20496;-69
2022/12/16 02:21:05;;;;;;;17.30;14.30;;;;;;;-143.84;96.07;44091.41;5109300;28;20508;-70
2022/12/16 02:24:01;;;;;;;19.50;15.50;;;;;;;-143.84;95.69;44100.94;5109331;28;20482;-69
2022/12/16 02:27:01;;;;;;;20.17;15.30;;;;;;;-143.84;95.82;44072.38;5069850;28;20501;-70
2022/12/16 02:29:50;;;;;;;17.93;13.57;;;;;;;-143.84;95.18;44081.88;5109352;28;20821;-69
2022/12/16 02:32:29;;;;;;;22.87;14.00;;;;;;;-143.84;95.34;44070.47;5109144;28;20458;-69
2022/12/16 02:35:02;;;;;;;19.80;14.10;;;;;;;-143.84;95.01;44078.09;5109046;28;20442;-70
2022/12/16 02:37:38;;;;;;;15.20;13.10;;;;;;;-143.84;94.81;44057.16;5109153;28;20772;-70
2022/12/16 02:40:11;;;;;;;16.37;12.97;;;;;;;-143.84;95.09;44060.94;5109273;28;20883;-70
2022/12/16 02:42:46;;;;;;;23.80;16.40;;;;;;;-143.84;95.73;44093.31;5109149;28;21009;-70
2022/12/16 02:45:16;;;;;;;24.80;17.90;;;;;;;-143.84;96.04;44097.13;5109082;28;21014;-69
2022/12/16 02:47:46;;;;;;;26.23;18.00;;;;;;;-143.84;96.83;44112.34;5109060;28;20945;-69
2022/12/16 02:50:20;;;;;;;24.47;16.80;;;;;;;-143.84;96.97;44127.56;5109210;28;20460;-69
2022/12/16 02:52:48;;;;;;;25.60;19.60;;;;;;;-143.84;97.24;44123.78;5108997;28;20475;-69
2022/12/16 02:55:16;;;;;;;21.77;18.20;;;;;;;-143.84;97.78;44139.00;5109235;28;20450;-73
2022/12/16 02:58:07;;;;;;;23.87;16.67;;;;;;;-143.84;97.81;44131.38;5108774;28;20499;-73
2022/12/16 03:00:48;;;;;;;18.73;14.47;;;;;;;-143.84;97.95;44148.53;5108913;28;20445;-73
2022/12/16 03:03:20;;;;;;;21.63;15.50;;;;;;;-143.84;97.97;44154.22;5109214;28;20448;-73
2022/12/16 03:05:51;;;;;;;18.07;15.30;;;;;;;-143.84;97.95;44150.41;5109210;28;20496;-73
2022/12/16 03:08:24;;;;;;;23.03;17.00;;;;;;;-143.84;97.47;44135.19;5112924;28;20463;-73
2022/12/16 03:10:57;;;;;;;18.80;15.40;;;;;;;-143.84;96.70;44119.97;5113065;28;20870;-73
2022/12/16 03:13:25;;;;;;;14.90;12.60;;;;;;;-143.84;96.34;44114.25;5112676;28;20485;-73
2022/12/16 03:15:56;;;;;;;14.73;11.57;;;;;;;-143.84;96.17;44099.03;5112762;28;20507;-73
2022/12/16 03:18:25;;;;;;;12.07;9.33;;;;;;;-143.84;95.78;44097.13;5112899;28;20446;-73
2022/12/16 03:20:55;;;;;;;10.20;9.13;;;;;;;-143.84;95.88;44099.03;5112829;28;20511;-73
2022/12/16 03:23:28;;;;;;;13.10;11.07;;;;;;;-143.84;95.86;44110.44;5112926;28;20446;-73
2022/12/16 03:26:03;;;;;;;12.50;9.87;;;;;;;-143.84;95.62;44099.03;5112250;28;20489;-73
2022/12/16 03:28:43;;;;;;;11.63;10.43;;;;;;;-143.84;95.68;44089.50;5112675;28;20438;-73
2022/12/16 03:31:19;;;;;;;13.73;10.50;;;;;;;-143.84;95.73;44097.13;5112569;28;20442;-73
2022/12/16 03:33:53;;;;;;;13.60;11.30;;;;;;;-143.84;95.76;44097.13;5112461;28;20941;-73
2022/12/16 03:36:25;;;;;;;14.70;11.73;;;;;;;-143.84;95.85;44097.13;5112348;28;20461;-74
2022/12/16 03:38:53;;;;;;;14.80;11.77;;;;;;;-143.84;96.04;44099.03;5112532;28;20431;-73
2022/12/16 03:41:23;;;;;;;18.50;12.83;;;;;;;-143.84;96.00;44102.84;5111912;28;20445;-73
2022/12/16 03:43:51;;;;;;;15.20;12.00;;;;;;;-143.84;96.08;44108.53;5112360;28;20439;-73
2022/12/16 03:46:18;;;;;;;17.53;13.20;;;;;;;-143.84;96.33;44121.88;5112131;28;20509;-73
2022/12/16 03:48:47;;;;;;;13.30;11.90;;;;;;;-143.84;96.61;44121.88;5111744;28;20481;-73
2022/12/16 03:51:16;;;;;;;16.67;12.00;;;;;;;-143.84;96.36;44127.56;5111673;28;20441;-73
2022/12/16 03:53:43;;;;;;;14.53;12.07;;;;;;;-143.84;96.68;44112.34;5111909;28;20863;-73
2022/12/16 03:56:11;;;;;;;21.90;12.60;;;;;;;-143.84;96.56;44123.78;5111747;28;20435;-73
2022/12/16 03:58:39;;;;;;;17.30;12.63;;;;;;;-143.84;96.57;44121.88;5111744;28;20444;-73
2022/12/16 04:01:08;;;;;;;17.30;13.17;;;;;;;-143.84;96.70;44118.06;5111909;28;20447;-73
2022/12/16 04:03:35;;;;;;;19.97;11.57;;;;;;;-143.84;96.64;44112.34;5111835;28;20445;-73
2022/12/16 04:06:02;;;;;;;12.77;11.17;;;;;;;-143.84;96.90;44123.78;5111873;28;20476;-73
2022/12/16 04:08:31;;;;;;;16.43;11.43;;;;;;;-143.84;96.96;44131.38;5111578;28;20440;-73
2022/12/16 04:24:51;;;;;;;13.83;11.00;;;;;;;-143.84;96.99;44125.69;5111461;28;20438;-73
2022/12/16 04:27:28;;;;;;;26.83;11.23;;;;;;;-143.84;97.07;44131.38;5111275;28;20478;-73
